sensor_id;sensor_type;location;lat;lon;timestamp;pressure;altitude;pressure_sealevel;temperature;humidity
17254;BME280;32542;52.832;13.816;2022-11-20T00:01:04;100999.28;;;21.16;48.80
17254;BME280;32542;52.832;13.816;2022-11-20T00:04:10;101010.81;;;21.16;48.73
17254;BME280;32542;52.832;13.816;2022-11-20T00:07:14;101005.53;;;21.15;48.83
17254;BME280;32542;52.832;13.816;2022-11-20T00:10:17;101004.75;;;21.13;48.88
17254;BME280;32542;52.832;13.816;2022-11-20T00:13:20;101010.06;;;21.13;48.85
17254;BME280;32542;52.832;13.816;2022-11-20T00:16:24;101001.28;;;21.11;48.81
17254;BME280;32542;52.832;13.816;2022-11-20T00:19:27;101015.56;;;21.10;48.98
17254;BME280;32542;52.832;13.816;2022-11-20T00:22:32;101008.47;;;21.09;48.98
17254;BME280;32542;52.832;13.816;2022-11-20T00:25:34;101012.09;;;21.08;48.91
17254;BME280;32542;52.832;13.816;2022-11-20T00:28:38;101006.81;;;21.06;49.07
17254;BME280;32542;52.832;13.816;2022-11-20T00:31:41;100998.00;;;21.06;49.02
17254;BME280;32542;52.832;13.816;2022-11-20T00:34:44;100998.00;;;21.06;48.97
17254;BME280;32542;52.832;13.816;2022-11-20T00:37:48;101007.78;;;21.05;48.99
17254;BME280;32542;52.832;13.816;2022-11-20T00:40:55;101013.09;;;21.05;49.01
17254;BME280;32542;52.832;13.816;2022-11-20T00:43:58;101006.91;;;21.05;49.02
17254;BME280;32542;52.832;13.816;2022-11-20T00:47:01;101003.44;;;21.03;49.03
17254;BME280;32542;52.832;13.816;2022-11-20T00:50:04;101009.63;;;21.03;48.97
17254;BME280;32542;52.832;13.816;2022-11-20T00:53:09;101007.84;;;21.02;49.00
17254;BME280;32542;52.832;13.816;2022-11-20T00:56:13;101004.34;;;21.02;49.02
17254;BME280;32542;52.832;13.816;2022-11-20T00:59:16;101005.28;;;21.00;49.14
17254;BME280;32542;52.832;13.816;2022-11-20T01:02:20;101022.13;;;21.01;49.12
17254;BME280;32542;52.832;13.816;2022-11-20T01:05:23;101015.94;;;21.00;48.96
17254;BME280;32542;52.832;13.816;2022-11-20T01:08:30;101019.50;;;20.99;49.00
17254;BME280;32542;52.832;13.816;2022-11-20T01:11:35;101009.72;;;21.00;49.05
17254;BME280;32542;52.832;13.816;2022-11-20T01:14:39;101016.00;;;20.99;48.98
17254;BME280;32542;52.832;13.816;2022-11-20T01:17:41;101008.84;;;20.99;49.08
17254;BME280;32542;52.832;13.816;2022-11-20T01:20:44;101011.53;;;20.99;49.10
17254;BME280;32542;52.832;13.816;2022-11-20T01:23:49;101006.19;;;20.99;49.07
17254;BME280;32542;52.832;13.816;2022-11-20T01:26:53;101011.53;;;20.99;48.97
17254;BME280;32542;52.832;13.816;2022-11-20T01:29:56;101008.84;;;20.99;49.00
17254;BME280;32542;52.832;13.816;2022-11-20T01:33:02;101008.94;;;20.98;49.00
17254;BME280;32542;52.832;13.816;2022-11-20T01:36:06;101000.94;;;20.98;49.10
17254;BME280;32542;52.832;13.816;2022-11-20T01:39:13;101008.06;;;20.97;48.94
17254;BME280;32542;52.832;13.816;2022-11-20T01:42:16;101004.56;;;20.97;49.03
17254;BME280;32542;52.832;13.816;2022-11-20T01:46:06;100996.56;;;20.97;49.05
17254;BME280;32542;52.832;13.816;2022-11-20T01:49:17;100988.63;;;20.95;48.98
17254;BME280;32542;52.832;13.816;2022-11-20T01:52:25;100992.09;;;20.97;49.01
17254;BME280;32542;52.832;13.816;2022-11-20T01:55:34;100994.75;;;20.97;48.94
17254;BME280;32542;52.832;13.816;2022-11-20T01:58:41;100993.91;;;20.97;49.06
17254;BME280;32542;52.832;13.816;2022-11-20T02:01:47;100992.09;;;20.97;49.04
17254;BME280;32542;52.832;13.816;2022-11-20T02:04:51;101000.06;;;20.97;49.11
17254;BME280;32542;52.832;13.816;2022-11-20T02:07:57;100989.50;;;20.96;49.03
17254;BME280;32542;52.832;13.816;2022-11-20T02:11:03;100990.50;;;20.93;49.16
17254;BME280;32542;52.832;13.816;2022-11-20T02:14:06;100981.81;;;20.90;49.03
17254;BME280;32542;52.832;13.816;2022-11-20T02:17:10;100985.47;;;20.87;48.70
17254;BME280;32542;52.832;13.816;2022-11-20T02:20:13;100980.22;;;20.86;48.23
17254;BME280;32542;52.832;13.816;2022-11-20T02:23:19;100982.06;;;20.84;47.95
17254;BME280;32542;52.832;13.816;2022-11-20T02:26:28;100982.06;;;20.84;47.81
17254;BME280;32542;52.832;13.816;2022-11-20T02:29:34;100972.31;;;20.84;47.67
17254;BME280;32542;52.832;13.816;2022-11-20T02:32:39;100975.75;;;20.86;47.63
17254;BME280;32542;52.832;13.816;2022-11-20T02:35:44;100977.47;;;20.87;47.54
17254;BME280;32542;52.832;13.816;2022-11-20T02:38:48;100972.94;;;20.89;47.46
17254;BME280;32542;52.832;13.816;2022-11-20T02:41:54;100977.28;;;20.92;47.68
17254;BME280;32542;52.832;13.816;2022-11-20T02:44:58;100967.41;;;20.94;47.57
17254;BME280;32542;52.832;13.816;2022-11-20T02:48:01;100973.63;;;20.94;47.68
17254;BME280;32542;52.832;13.816;2022-11-20T02:51:04;100971.81;;;20.95;47.64
17254;BME280;32542;52.832;13.816;2022-11-20T02:54:07;100976.19;;;20.96;47.73
17254;BME280;32542;52.832;13.816;2022-11-20T02:57:11;100970.75;;;20.99;47.70
17254;BME280;32542;52.832;13.816;2022-11-20T03:00:15;100972.47;;;21.00;47.72
17254;BME280;32542;52.832;13.816;2022-11-20T03:03:18;100976.06;;;20.99;47.83
17254;BME280;32542;52.832;13.816;2022-11-20T03:06:21;100971.53;;;21.01;47.71
17254;BME280;32542;52.832;13.816;2022-11-20T03:09:24;100976.00;;;21.00;47.80
17254;BME280;32542;52.832;13.816;2022-11-20T03:12:29;100964.47;;;21.00;47.86
17254;BME280;32542;52.832;13.816;2022-11-20T03:15:32;100959.16;;;21.00;47.88
17254;BME280;32542;52.832;13.816;2022-11-20T03:18:35;100968.00;;;21.00;47.74
17254;BME280;32542;52.832;13.816;2022-11-20T03:21:38;100960.88;;;21.01;48.02
17254;BME280;32542;52.832;13.816;2022-11-20T03:24:41;100959.16;;;21.00;48.01
17254;BME280;32542;52.832;13.816;2022-11-20T03:27:45;100952.03;;;21.00;47.96
17254;BME280;32542;52.832;13.816;2022-11-20T03:30:48;100953.78;;;21.02;47.99
17254;BME280;32542;52.832;13.816;2022-11-20T03:33:51;100958.19;;;21.03;47.96
17254;BME280;32542;52.832;13.816;2022-11-20T03:36:54;100950.97;;;21.05;48.01
17254;BME280;32542;52.832;13.816;2022-11-20T03:39:57;100948.19;;;21.08;48.01
17254;BME280;32542;52.832;13.816;2022-11-20T03:43:01;100943.56;;;21.11;47.86
17254;BME280;32542;52.832;13.816;2022-11-20T03:46:04;100939.91;;;21.14;47.96
17254;BME280;32542;52.832;13.816;2022-11-20T03:49:08;100937.09;;;21.17;47.88
17254;BME280;32542;52.832;13.816;2022-11-20T03:52:11;100938.75;;;21.19;47.92
17254;BME280;32542;52.832;13.816;2022-11-20T03:55:14;100941.28;;;21.22;47.85
17254;BME280;32542;52.832;13.816;2022-11-20T03:58:18;100934.97;;;21.25;47.92
17254;BME280;32542;52.832;13.816;2022-11-20T04:01:23;100932.22;;;21.26;47.80
17254;BME280;32542;52.832;13.816;2022-11-20T04:04:27;100929.47;;;21.28;47.72
17254;BME280;32542;52.832;13.816;2022-11-20T04:07:30;100920.56;;;21.29;47.79
17254;BME280;32542;52.832;13.816;2022-11-20T04:10:33;100931.22;;;21.29;47.72
17254;BME280;32542;52.832;13.816;2022-11-20T04:13:38;100930.34;;;21.28;47.82
17254;BME280;32542;52.832;13.816;2022-11-20T04:16:42;100925.00;;;21.28;47.75
17254;BME280;32542;52.832;13.816;2022-11-20T04:19:45;100924.16;;;21.28;47.83
17254;BME280;32542;52.832;13.816;2022-11-20T04:22:49;100930.47;;;21.25;47.78
17254;BME280;32542;52.832;13.816;2022-11-20T04:25:51;100929.63;;;21.25;47.89
17254;BME280;32542;52.832;13.816;2022-11-20T04:28:56;100927.88;;;21.24;47.91
17254;BME280;32542;52.832;13.816;2022-11-20T04:32:00;100930.63;;;21.22;47.75
17254;BME280;32542;52.832;13.816;2022-11-20T04:35:03;100921.84;;;21.20;47.83
17254;BME280;32542;52.832;13.816;2022-11-20T04:38:06;100925.44;;;21.19;47.88
17254;BME280;32542;52.832;13.816;2022-11-20T04:41:15;100923.72;;;21.18;47.87
17254;BME280;32542;52.832;13.816;2022-11-20T04:44:19;100925.59;;;21.16;48.04
17254;BME280;32542;52.832;13.816;2022-11-20T04:47:23;100926.59;;;21.14;47.98
17254;BME280;32542;52.832;13.816;2022-11-20T04:50:26;100920.41;;;21.13;47.99
17254;BME280;32542;52.832;13.816;2022-11-20T04:53:29;100919.63;;;21.11;48.06
17254;BME280;32542;52.832;13.816;2022-11-20T04:56:32;100924.06;;;21.11;48.14
17254;BME280;32542;52.832;13.816;2022-11-20T04:59:37;100922.34;;;21.10;48.15
17254;BME280;32542;52.832;13.816;2022-11-20T05:02:40;100923.28;;;21.09;48.22
17254;BME280;32542;52.832;13.816;2022-11-20T05:05:43;100930.47;;;21.07;48.21
17254;BME280;32542;52.832;13.816;2022-11-20T05:08:46;100925.16;;;21.07;48.15
17254;BME280;32542;52.832;13.816;2022-11-20T05:11:49;100925.22;;;21.05;48.23
17254;BME280;32542;52.832;13.816;2022-11-20T05:14:53;100920.81;;;21.04;48.34
17254;BME280;32542;52.832;13.816;2022-11-20T05:17:56;100917.25;;;21.05;48.29
17254;BME280;32542;52.832;13.816;2022-11-20T05:20:59;100917.25;;;21.05;48.24
17254;BME280;32542;52.832;13.816;2022-11-20T05:24:02;100916.38;;;21.05;48.25
17254;BME280;32542;52.832;13.816;2022-11-20T05:27:06;100913.72;;;21.05;48.25
17254;BME280;32542;52.832;13.816;2022-11-20T05:30:12;100911.03;;;21.05;48.36
17254;BME280;32542;52.832;13.816;2022-11-20T05:33:15;100919.81;;;21.07;48.36
17254;BME280;32542;52.832;13.816;2022-11-20T05:36:19;100911.84;;;21.07;48.26
17254;BME280;32542;52.832;13.816;2022-11-20T05:39:22;100902.06;;;21.07;48.26
17254;BME280;32542;52.832;13.816;2022-11-20T05:42:25;100895.88;;;21.07;48.23
17254;BME280;32542;52.832;13.816;2022-11-20T05:45:35;100896.66;;;21.09;48.33
17254;BME280;32542;52.832;13.816;2022-11-20T05:48:41;100895.78;;;21.08;48.40
17254;BME280;32542;52.832;13.816;2022-11-20T05:51:44;100895.78;;;21.08;48.34
17254;BME280;32542;52.832;13.816;2022-11-20T05:54:47;100898.41;;;21.10;48.29
17254;BME280;32542;52.832;13.816;2022-11-20T05:57:52;100900.19;;;21.09;48.25
17254;BME280;32542;52.832;13.816;2022-11-20T06:01:03;100901.06;;;21.10;48.33
17254;BME280;32542;52.832;13.816;2022-11-20T06:04:06;100895.72;;;21.10;48.29
17254;BME280;32542;52.832;13.816;2022-11-20T06:07:09;100894.78;;;21.11;48.39
17254;BME280;32542;52.832;13.816;2022-11-20T06:10:12;100895.66;;;21.11;48.35
17254;BME280;32542;52.832;13.816;2022-11-20T06:13:15;100899.19;;;21.12;48.37
17254;BME280;32542;52.832;13.816;2022-11-20T06:16:20;100884.91;;;21.13;48.24
17254;BME280;32542;52.832;13.816;2022-11-20T06:19:23;100885.88;;;21.12;48.35
17254;BME280;32542;52.832;13.816;2022-11-20T06:22:26;100891.19;;;21.12;48.35
17254;BME280;32542;52.832;13.816;2022-11-20T06:25:29;100892.06;;;21.12;48.33
17254;BME280;32542;52.832;13.816;2022-11-20T06:28:32;100895.66;;;21.11;48.04
17254;BME280;32542;52.832;13.816;2022-11-20T06:31:36;100888.59;;;21.10;47.98
17254;BME280;32542;52.832;13.816;2022-11-20T06:34:40;100894.78;;;21.11;48.08
17254;BME280;32542;52.832;13.816;2022-11-20T06:37:43;100893.91;;;21.10;48.13
17254;BME280;32542;52.832;13.816;2022-11-20T06:40:46;100895.72;;;21.10;48.15
17254;BME280;32542;52.832;13.816;2022-11-20T06:43:49;100892.19;;;21.09;48.19
17254;BME280;32542;52.832;13.816;2022-11-20T06:46:54;100889.53;;;21.09;48.18
17254;BME280;32542;52.832;13.816;2022-11-20T06:49:57;100882.41;;;21.10;48.37
17254;BME280;32542;52.832;13.816;2022-11-20T06:53:03;100886.78;;;21.11;48.14
17254;BME280;32542;52.832;13.816;2022-11-20T06:56:06;100890.41;;;21.10;48.31
17254;BME280;32542;52.832;13.816;2022-11-20T06:59:09;100890.31;;;21.11;48.27
17254;BME280;32542;52.832;13.816;2022-11-20T07:02:14;100883.34;;;21.09;48.40
17254;BME280;32542;52.832;13.816;2022-11-20T07:05:17;100882.41;;;21.10;48.26
17254;BME280;32542;52.832;13.816;2022-11-20T07:08:20;100884.22;;;21.09;48.36
17254;BME280;32542;52.832;13.816;2022-11-20T07:11:24;100886.00;;;21.09;48.43
17254;BME280;32542;52.832;13.816;2022-11-20T07:14:27;100886.88;;;21.09;48.32
17254;BME280;32542;52.832;13.816;2022-11-20T07:17:31;100886.00;;;21.09;48.46
17254;BME280;32542;52.832;13.816;2022-11-20T07:20:34;100880.69;;;21.09;48.33
17254;BME280;32542;52.832;13.816;2022-11-20T07:23:37;100878.88;;;21.09;48.50
17254;BME280;32542;52.832;13.816;2022-11-20T07:26:41;100886.88;;;21.09;48.36
17254;BME280;32542;52.832;13.816;2022-11-20T07:29:44;100878.00;;;21.09;48.42
17254;BME280;32542;52.832;13.816;2022-11-20T07:32:51;100878.00;;;21.09;48.50
17254;BME280;32542;52.832;13.816;2022-11-20T07:35:54;100876.31;;;21.08;48.44
17254;BME280;32542;52.832;13.816;2022-11-20T07:38:57;100882.53;;;21.07;48.41
17254;BME280;32542;52.832;13.816;2022-11-20T07:42:00;100885.22;;;21.07;48.54
17254;BME280;32542;52.832;13.816;2022-11-20T07:45:03;100887.00;;;21.06;48.47
17254;BME280;32542;52.832;13.816;2022-11-20T07:48:07;100886.16;;;21.06;48.57
17254;BME280;32542;52.832;13.816;2022-11-20T07:51:10;100877.38;;;21.04;48.61
17254;BME280;32542;52.832;13.816;2022-11-20T07:54:15;100871.19;;;21.03;48.62
17254;BME280;32542;52.832;13.816;2022-11-20T07:57:18;100875.66;;;21.03;48.56
17254;BME280;32542;52.832;13.816;2022-11-20T08:00:27;100868.56;;;21.02;48.64
17254;BME280;32542;52.832;13.816;2022-11-20T08:03:32;100879.22;;;21.02;48.68
17254;BME280;32542;52.832;13.816;2022-11-20T08:06:35;100868.63;;;21.00;48.55
17254;BME280;32542;52.832;13.816;2022-11-20T08:09:38;100862.44;;;20.99;48.68
17254;BME280;32542;52.832;13.816;2022-11-20T08:12:44;100871.28;;;21.00;48.63
17254;BME280;32542;52.832;13.816;2022-11-20T08:16:05;100865.09;;;20.99;48.64
17254;BME280;32542;52.832;13.816;2022-11-20T08:19:10;100859.75;;;20.99;48.58
17254;BME280;32542;52.832;13.816;2022-11-20T08:22:13;100857.09;;;20.99;48.69
17254;BME280;32542;52.832;13.816;2022-11-20T08:25:16;100857.19;;;20.98;48.71
17254;BME280;32542;52.832;13.816;2022-11-20T08:28:19;100853.72;;;20.96;48.68
17254;BME280;32542;52.832;13.816;2022-11-20T08:31:24;100862.50;;;20.98;48.74
17254;BME280;32542;52.832;13.816;2022-11-20T08:34:29;100853.66;;;20.97;48.86
17254;BME280;32542;52.832;13.816;2022-11-20T08:37:32;100857.19;;;20.98;48.78
17254;BME280;32542;52.832;13.816;2022-11-20T08:40:35;100865.09;;;20.99;48.71
17254;BME280;32542;52.832;13.816;2022-11-20T08:43:38;100849.06;;;21.01;48.71
17254;BME280;32542;52.832;13.816;2022-11-20T08:46:41;100849.03;;;21.03;48.65
17254;BME280;32542;52.832;13.816;2022-11-20T08:49:46;100852.47;;;21.05;48.62
17254;BME280;32542;52.832;13.816;2022-11-20T08:52:49;100847.84;;;21.08;48.63
17254;BME280;32542;52.832;13.816;2022-11-20T08:55:52;100845.13;;;21.10;48.63
17254;BME280;32542;52.832;13.816;2022-11-20T08:58:55;100848.59;;;21.12;48.53
17254;BME280;32542;52.832;13.816;2022-11-20T09:02:20;100850.31;;;21.13;48.64
17254;BME280;32542;52.832;13.816;2022-11-20T09:05:25;100842.25;;;21.14;48.60
17254;BME280;32542;52.832;13.816;2022-11-20T09:08:28;100844.84;;;21.16;48.52
17254;BME280;32542;52.832;13.816;2022-11-20T09:11:32;100847.50;;;21.16;48.49
17254;BME280;32542;52.832;13.816;2022-11-20T09:14:34;100849.22;;;21.17;48.44
17254;BME280;32542;52.832;13.816;2022-11-20T09:17:37;100846.56;;;21.17;48.56
17254;BME280;32542;52.832;13.816;2022-11-20T09:20:42;100844.84;;;21.16;48.57
17254;BME280;32542;52.832;13.816;2022-11-20T09:23:45;100846.56;;;21.17;48.50
17254;BME280;32542;52.832;13.816;2022-11-20T09:26:48;100845.72;;;21.16;48.55
17254;BME280;32542;52.832;13.816;2022-11-20T09:29:51;100851.88;;;21.17;48.40
17254;BME280;32542;52.832;13.816;2022-11-20T09:32:54;100844.84;;;21.16;48.03
17254;BME280;32542;52.832;13.816;2022-11-20T09:35:59;100845.75;;;21.15;48.09
17254;BME280;32542;52.832;13.816;2022-11-20T09:39:02;100841.38;;;21.14;48.09
17254;BME280;32542;52.832;13.816;2022-11-20T09:42:22;100843.25;;;21.12;47.22
17254;BME280;32542;52.832;13.816;2022-11-20T09:45:44;100841.75;;;21.06;44.31
17254;BME280;32542;52.832;13.816;2022-11-20T09:49:18;100839.41;;;20.98;43.46
17254;BME280;32542;52.832;13.816;2022-11-20T09:52:39;100835.19;;;20.94;42.76
17254;BME280;32542;52.832;13.816;2022-11-20T09:55:48;100832.53;;;20.94;42.24
17254;BME280;32542;52.832;13.816;2022-11-20T09:58:52;100824.38;;;20.97;42.28
17254;BME280;32542;52.832;13.816;2022-11-20T10:01:59;100828.59;;;21.03;42.68
17254;BME280;32542;52.832;13.816;2022-11-20T10:05:06;100815.06;;;21.08;43.02
17254;BME280;32542;52.832;13.816;2022-11-20T10:08:17;100820.09;;;21.14;43.09
17254;BME280;32542;52.832;13.816;2022-11-20T10:11:32;100817.03;;;21.21;43.36
17254;BME280;32542;52.832;13.816;2022-11-20T10:14:50;100810.41;;;21.30;43.45
17254;BME280;32542;52.832;13.816;2022-11-20T10:18:11;100811.84;;;21.37;43.56
17254;BME280;32542;52.832;13.816;2022-11-20T10:21:24;100803.66;;;21.40;43.75
17254;BME280;32542;52.832;13.816;2022-11-20T10:24:44;100802.75;;;21.41;43.91
17254;BME280;32542;52.832;13.816;2022-11-20T10:28:01;100801.88;;;21.40;44.05
17254;BME280;32542;52.832;13.816;2022-11-20T10:31:10;100795.69;;;21.40;44.34
17254;BME280;32542;52.832;13.816;2022-11-20T10:34:20;100806.34;;;21.40;44.45
17254;BME280;32542;52.832;13.816;2022-11-20T10:37:26;100798.44;;;21.38;44.66
17254;BME280;32542;52.832;13.816;2022-11-20T10:40:36;100799.28;;;21.39;44.75
17254;BME280;32542;52.832;13.816;2022-11-20T10:43:41;100795.75;;;21.38;44.89
17254;BME280;32542;52.832;13.816;2022-11-20T10:46:45;100792.22;;;21.38;45.20
17254;BME280;32542;52.832;13.816;2022-11-20T10:49:52;100787.78;;;21.38;45.39
17254;BME280;32542;52.832;13.816;2022-11-20T10:53:02;100793.19;;;21.37;45.44
17254;BME280;32542;52.832;13.816;2022-11-20T10:56:16;100788.78;;;21.36;45.69
17254;BME280;32542;52.832;13.816;2022-11-20T10:59:34;100785.34;;;21.34;45.66
17254;BME280;32542;52.832;13.816;2022-11-20T11:02:43;100792.53;;;21.32;45.84
17254;BME280;32542;52.832;13.816;2022-11-20T11:05:50;100791.75;;;21.30;46.02
17254;BME280;32542;52.832;13.816;2022-11-20T11:08:58;100794.59;;;21.27;46.18
17254;BME280;32542;52.832;13.816;2022-11-20T11:12:08;100793.72;;;21.26;46.11
17254;BME280;32542;52.832;13.816;2022-11-20T11:15:14;100790.28;;;21.24;46.32
17254;BME280;32542;52.832;13.816;2022-11-20T11:18:28;100783.28;;;21.22;46.36
17254;BME280;32542;52.832;13.816;2022-11-20T11:21:33;100785.16;;;21.20;46.50
17254;BME280;32542;52.832;13.816;2022-11-20T11:24:37;100780.75;;;21.19;46.73
17254;BME280;32542;52.832;13.816;2022-11-20T11:27:47;100781.72;;;21.18;46.90
17254;BME280;32542;52.832;13.816;2022-11-20T11:30:50;100769.31;;;21.17;46.85
17254;BME280;32542;52.832;13.816;2022-11-20T11:34:04;100765.81;;;21.16;46.92
17254;BME280;32542;52.832;13.816;2022-11-20T11:37:13;100766.75;;;21.15;47.04
17254;BME280;32542;52.832;13.816;2022-11-20T11:40:18;100761.50;;;21.14;47.13
17254;BME280;32542;52.832;13.816;2022-11-20T11:43:29;100758.84;;;21.14;47.26
17254;BME280;32542;52.832;13.816;2022-11-20T11:46:53;100755.41;;;21.12;47.29
17254;BME280;32542;52.832;13.816;2022-11-20T11:50:02;100760.78;;;21.10;47.38
17254;BME280;32542;52.832;13.816;2022-11-20T11:53:09;100770.59;;;21.10;47.34
17254;BME280;32542;52.832;13.816;2022-11-20T11:56:13;100761.81;;;21.08;47.41
17254;BME280;32542;52.832;13.816;2022-11-20T11:59:26;100761.81;;;21.08;48.16
17254;BME280;32542;52.832;13.816;2022-11-20T12:02:36;100760.00;;;21.08;49.50
17254;BME280;32542;52.832;13.816;2022-11-20T12:05:43;100753.81;;;21.08;49.10
17254;BME280;32542;52.832;13.816;2022-11-20T12:08:50;100750.22;;;21.09;48.17
17254;BME280;32542;52.832;13.816;2022-11-20T12:12:01;100747.53;;;21.09;48.05
17254;BME280;32542;52.832;13.816;2022-11-20T12:15:10;100749.28;;;21.10;48.09
17254;BME280;32542;52.832;13.816;2022-11-20T12:18:16;100755.44;;;21.10;48.10
17254;BME280;32542;52.832;13.816;2022-11-20T12:21:27;100748.41;;;21.09;48.24
17254;BME280;32542;52.832;13.816;2022-11-20T12:24:43;100747.53;;;21.09;48.32
17254;BME280;32542;52.832;13.816;2022-11-20T12:28:15;100746.63;;;21.10;48.91
17254;BME280;32542;52.832;13.816;2022-11-20T12:31:35;100737.63;;;21.12;49.01
17254;BME280;32542;52.832;13.816;2022-11-20T12:34:51;100740.19;;;21.14;49.34
17254;BME280;32542;52.832;13.816;2022-11-20T12:38:08;100729.56;;;21.14;49.30
17254;BME280;32542;52.832;13.816;2022-11-20T12:41:27;100732.13;;;21.15;49.53
17254;BME280;32542;52.832;13.816;2022-11-20T12:45:05;100728.53;;;21.16;49.48
17254;BME280;32542;52.832;13.816;2022-11-20T12:48:28;100720.56;;;21.16;49.55
17254;BME280;32542;52.832;13.816;2022-11-20T12:51:50;100725.78;;;21.18;49.51
17254;BME280;32542;52.832;13.816;2022-11-20T12:55:33;100732.00;;;21.18;49.61
17254;BME280;32542;52.832;13.816;2022-11-20T12:58:45;100728.47;;;21.18;49.64
17254;BME280;32542;52.832;13.816;2022-11-20T13:01:55;100725.78;;;21.18;49.56
17254;BME280;32542;52.832;13.816;2022-11-20T13:05:20;100727.59;;;21.17;49.69
17254;BME280;32542;52.832;13.816;2022-11-20T13:08:29;100724.06;;;21.17;49.53
17254;BME280;32542;52.832;13.816;2022-11-20T13:11:41;100718.72;;;21.17;49.56
17254;BME280;32542;52.832;13.816;2022-11-20T13:14:52;100719.69;;;21.16;49.61
17254;BME280;32542;52.832;13.816;2022-11-20T13:17:59;100717.94;;;21.15;49.67
17254;BME280;32542;52.832;13.816;2022-11-20T13:21:13;100722.34;;;21.16;49.76
17254;BME280;32542;52.832;13.816;2022-11-20T13:24:22;100715.28;;;21.15;49.69
17254;BME280;32542;52.832;13.816;2022-11-20T13:27:27;100717.88;;;21.16;49.71
17254;BME280;32542;52.832;13.816;2022-11-20T13:30:33;100714.34;;;21.16;49.64
17254;BME280;32542;52.832;13.816;2022-11-20T13:33:38;100711.69;;;21.16;49.62
17254;BME280;32542;52.832;13.816;2022-11-20T13:36:51;100722.34;;;21.16;49.71
17254;BME280;32542;52.832;13.816;2022-11-20T13:40:05;100704.63;;;21.15;49.70
17254;BME280;32542;52.832;13.816;2022-11-20T13:43:18;100714.44;;;21.14;49.81
17254;BME280;32542;52.832;13.816;2022-11-20T13:46:22;100717.16;;;21.13;49.57
17254;BME280;32542;52.832;13.816;2022-11-20T13:49:29;100706.59;;;21.11;49.22
17254;BME280;32542;52.832;13.816;2022-11-20T13:52:40;100710.28;;;21.09;47.68
17254;BME280;32542;52.832;13.816;2022-11-20T13:55:53;100713.81;;;21.09;47.56
17254;BME280;32542;52.832;13.816;2022-11-20T13:59:02;100703.25;;;21.08;47.72
17254;BME280;32542;52.832;13.816;2022-11-20T14:02:17;100703.25;;;21.08;47.91
17254;BME280;32542;52.832;13.816;2022-11-20T14:05:22;100702.28;;;21.09;48.18
17254;BME280;32542;52.832;13.816;2022-11-20T14:08:32;100704.81;;;21.12;48.94
17254;BME280;32542;52.832;13.816;2022-11-20T14:11:46;100703.63;;;21.17;50.75
17254;BME280;32542;52.832;13.816;2022-11-20T14:14:51;100703.53;;;21.19;49.15
17254;BME280;32542;52.832;13.816;2022-11-20T14:17:55;100707.06;;;21.19;48.90
17254;BME280;32542;52.832;13.816;2022-11-20T14:21:00;100699.00;;;21.21;48.89
17254;BME280;32542;52.832;13.816;2022-11-20T14:24:05;100708.72;;;21.22;49.01
17254;BME280;32542;52.832;13.816;2022-11-20T14:27:13;100697.13;;;21.23;49.09
17254;BME280;32542;52.832;13.816;2022-11-20T14:30:19;100700.72;;;21.22;49.00
17254;BME280;32542;52.832;13.816;2022-11-20T14:33:23;100690.94;;;21.22;49.16
17254;BME280;32542;52.832;13.816;2022-11-20T14:36:28;100696.28;;;21.22;49.15
17254;BME280;32542;52.832;13.816;2022-11-20T14:39:34;100697.28;;;21.20;48.48
17254;BME280;32542;52.832;13.816;2022-11-20T14:42:43;100693.50;;;21.07;42.21
17254;BME280;32542;52.832;13.816;2022-11-20T14:45:54;100694.22;;;20.91;41.98
17254;BME280;32542;52.832;13.816;2022-11-20T14:49:01;100683.81;;;20.87;42.67
17254;BME280;32542;52.832;13.816;2022-11-20T14:52:12;100681.09;;;20.88;42.25
17254;BME280;32542;52.832;13.816;2022-11-20T14:55:26;100675.47;;;20.94;42.66
17254;BME280;32542;52.832;13.816;2022-11-20T14:58:32;100679.56;;;21.02;43.01
17254;BME280;32542;52.832;13.816;2022-11-20T15:01:35;100682.63;;;21.11;43.10
17254;BME280;32542;52.832;13.816;2022-11-20T15:04:45;100680.28;;;21.22;43.41
17254;BME280;32542;52.832;13.816;2022-11-20T15:07:50;100687.75;;;21.33;43.41
17254;BME280;32542;52.832;13.816;2022-11-20T15:10:55;100691.78;;;21.40;43.49
17254;BME280;32542;52.832;13.816;2022-11-20T15:14:03;100688.84;;;21.46;43.73
17254;BME280;32542;52.832;13.816;2022-11-20T15:17:08;100677.06;;;21.50;43.88
17254;BME280;32542;52.832;13.816;2022-11-20T15:20:14;100679.56;;;21.53;44.10
17254;BME280;32542;52.832;13.816;2022-11-20T15:23:19;100680.44;;;21.53;44.03
17254;BME280;32542;52.832;13.816;2022-11-20T15:26:25;100675.97;;;21.54;44.28
17254;BME280;32542;52.832;13.816;2022-11-20T15:29:29;100677.66;;;21.55;44.35
17254;BME280;32542;52.832;13.816;2022-11-20T15:32:32;100683.00;;;21.55;44.60
17254;BME280;32542;52.832;13.816;2022-11-20T15:35:35;100673.31;;;21.54;44.87
17254;BME280;32542;52.832;13.816;2022-11-20T15:38:38;100670.63;;;21.54;45.06
17254;BME280;32542;52.832;13.816;2022-11-20T15:41:42;100668.06;;;21.52;45.21
17254;BME280;32542;52.832;13.816;2022-11-20T15:44:45;100668.91;;;21.53;45.29
17254;BME280;32542;52.832;13.816;2022-11-20T15:47:48;100658.34;;;21.51;45.56
17254;BME280;32542;52.832;13.816;2022-11-20T15:50:55;100657.56;;;21.49;45.50
17254;BME280;32542;52.832;13.816;2022-11-20T15:54:00;100657.69;;;21.46;45.73
17254;BME280;32542;52.832;13.816;2022-11-20T15:57:05;100660.44;;;21.45;45.85
17254;BME280;32542;52.832;13.816;2022-11-20T16:00:09;100660.63;;;21.42;45.94
17254;BME280;32542;52.832;13.816;2022-11-20T16:03:12;100657.16;;;21.40;46.12